Time;durP1;ratioP1;P1;durP2;ratioP2;P2;SDS_P1;SDS_P2;PMS_P1;PMS_P2;Temp;Humidity;BMP_temperature;BMP_pressure;BME280_temperature;BME280_humidity;BME280_pressure;Samples;Min_cycle;Max_cycle;Signal;HPM_P1;HPM_P2
2021/12/17 00:01:12;;;;;;;7.28;1.50;;;;;;;3.99;100.00;99397.78;5152383;27;20228;-63
2021/12/17 00:03:48;;;;;;;4.15;1.50;;;;;;;4.00;100.00;99398.63;5152362;27;20468;-63
2021/12/17 00:06:39;;;;;;;4.10;1.25;;;;;;;4.04;100.00;99404.22;5152023;27;20043;-63
2021/12/17 00:09:06;;;;;;;3.65;2.08;;;;;;;4.04;100.00;99394.16;5152215;27;20043;-63
2021/12/17 00:11:32;;;;;;;2.72;1.33;;;;;;;4.05;100.00;99400.38;5152104;27;20058;-63
2021/12/17 00:13:58;;;;;;;3.00;1.70;;;;;;;3.96;100.00;99409.28;5152250;27;20051;-63
2021/12/17 00:16:31;;;;;;;5.25;1.50;;;;;;;3.96;100.00;99419.31;5152466;27;20050;-62
2021/12/17 00:19:10;;;;;;;5.97;1.77;;;;;;;3.98;100.00;99422.53;5152390;27;20050;-63
2021/12/17 00:49:03;;;;;;;4.80;1.55;;;;;;;3.68;100.00;99400.56;5151741;27;20085;-63
2021/12/17 00:51:55;;;;;;;2.17;1.55;;;;;;;3.74;100.00;99384.97;5151718;27;20051;-62
2021/12/17 00:54:31;;;;;;;4.57;1.48;;;;;;;3.65;100.00;99389.56;5151608;27;20055;-63
2021/12/17 00:57:00;;;;;;;6.47;1.70;;;;;;;3.62;100.00;99388.25;5151700;27;20055;-63
2021/12/17 00:59:27;;;;;;;4.30;1.70;;;;;;;3.63;100.00;99356.53;5151587;27;20099;-63
2021/12/17 01:01:55;;;;;;;3.40;1.50;;;;;;;3.70;100.00;99324.34;5151440;27;20053;-63
2021/12/17 01:04:22;;;;;;;4.35;1.30;;;;;;;3.54;100.00;99345.66;5151525;27;20050;-63
2021/12/17 01:06:49;;;;;;;6.03;1.58;;;;;;;3.54;100.00;99313.94;5150879;27;20566;-62
2021/12/17 01:09:19;;;;;;;4.38;1.50;;;;;;;3.56;100.00;99310.91;5151069;27;20524;-62
2021/12/17 01:11:46;;;;;;;1.65;1.15;;;;;;;3.61;100.00;99302.63;5151624;27;20058;-63
2021/12/17 01:14:13;;;;;;;1.20;1.08;;;;;;;3.58;100.00;99300.56;5151414;27;20459;-63
2021/12/17 01:16:39;;;;;;;1.45;1.02;;;;;;;3.38;100.00;99291.09;5151607;27;20047;-62
2021/12/17 01:19:15;;;;;;;3.97;1.58;;;;;;;3.25;100.00;99292.78;5151077;27;20053;-63
2021/12/17 01:21:56;;;;;;;2.45;1.10;;;;;;;3.21;100.00;99283.69;5151083;27;20046;-62
2021/12/17 01:24:40;;;;;;;1.73;1.00;;;;;;;3.22;100.00;99274.44;5149085;27;20058;-62
2021/12/17 01:35:20;;;;;;;3.03;1.08;;;;;;;3.19;100.00;99231.72;5151156;27;20166;-63
2021/12/17 01:41:01;;;;;;;2.38;1.08;;;;;;;3.26;100.00;99220.44;5105552;27;20513;-62
2021/12/17 01:43:32;;;;;;;3.03;1.08;;;;;;;3.17;100.00;99217.72;5151186;27;20050;-62
2021/12/17 01:45:59;;;;;;;4.28;1.25;;;;;;;3.26;100.00;99215.00;5150941;27;20050;-63
2021/12/17 01:48:33;;;;;;;3.35;1.38;;;;;;;3.27;100.00;99212.00;5151131;27;20070;-62
2021/12/17 01:56:50;;;;;;;2.95;1.00;;;;;;;3.28;100.00;99216.28;5151384;27;20054;-62
2021/12/17 01:59:24;;;;;;;2.63;1.02;;;;;;;3.23;100.00;99216.47;5150932;27;20522;-62
2021/12/17 02:01:54;;;;;;;1.52;1.00;;;;;;;3.25;100.00;99222.34;5150744;27;20501;-63
2021/12/17 02:04:20;;;;;;;3.85;1.00;;;;;;;3.28;100.00;99221.72;5150412;27;20054;-63
2021/12/17 02:06:47;;;;;;;7.07;1.10;;;;;;;3.23;100.00;99240.00;5150473;27;20053;-63
2021/12/17 02:09:47;;;;;;;3.35;1.05;;;;;;;3.25;100.00;99238.59;5150728;27;20050;-63
2021/12/17 02:20:46;;;;;;;3.88;1.30;;;;;;;2.99;100.00;99218.75;5150874;27;20045;-63
2021/12/17 02:28:55;;;;;;;1.85;1.20;;;;;;;2.97;100.00;99202.03;5118691;27;20051;-63
2021/12/17 02:31:27;;;;;;;6.13;1.38;;;;;;;3.04;100.00;99183.41;5153906;27;20050;-63
2021/12/17 02:33:55;;;;;;;5.15;1.40;;;;;;;3.01;100.00;99179.41;5154537;27;20112;-63
2021/12/17 02:36:26;;;;;;;8.20;1.38;;;;;;;2.98;100.00;99169.22;5153984;27;20145;-62
2021/12/17 02:39:04;;;;;;;2.78;1.23;;;;;;;3.06;100.00;99160.28;5153856;27;20053;-63
2021/12/17 02:47:00;;;;;;;3.20;1.70;;;;;;;3.08;100.00;99146.44;5154076;27;20079;-63
2021/12/17 02:49:29;;;;;;;3.53;1.42;;;;;;;2.98;100.00;99150.25;5153755;27;20057;-63
2021/12/17 02:51:57;;;;;;;2.65;1.40;;;;;;;2.97;100.00;99139.75;5152623;27;20054;-63
2021/12/17 02:54:24;;;;;;;5.03;1.60;;;;;;;2.98;100.00;99139.41;5153214;27;20145;-63
2021/12/17 02:56:51;;;;;;;5.20;1.38;;;;;;;3.00;100.00;99128.25;5153499;27;20053;-63
2021/12/17 02:59:17;;;;;;;9.75;1.67;;;;;;;2.96;100.00;99122.69;5153809;27;20046;-63
2021/12/17 03:01:45;;;;;;;9.18;1.40;;;;;;;3.00;100.00;99120.13;5153876;27;20065;-63
2021/12/17 03:04:14;;;;;;;3.15;1.30;;;;;;;3.00;100.00;99115.53;5153426;27;20450;-63
2021/12/17 03:06:41;;;;;;;4.53;1.50;;;;;;;3.00;100.00;99130.97;5153421;27;20047;-63
2021/12/17 03:09:08;;;;;;;6.75;1.10;;;;;;;2.94;100.00;99133.03;5153772;27;20078;-64
2021/12/17 03:11:35;;;;;;;4.10;1.23;;;;;;;2.95;100.00;99137.34;5153427;27;20142;-63
2021/12/17 03:14:01;;;;;;;4.07;1.27;;;;;;;3.02;100.00;99126.03;5153285;27;20070;-63
2021/12/17 03:16:33;;;;;;;3.05;1.38;;;;;;;3.05;100.00;99138.94;5153155;27;20580;-63
2021/12/17 03:19:06;;;;;;;3.15;1.13;;;;;;;2.98;100.00;99150.25;5153312;27;20573;-63
2021/12/17 03:24:18;;;;;;;;;;;;;;;3.01;100.00;99148.84;5153864;27;20107;-63
2021/12/17 03:26:45;;;;;;;4.10;1.13;;;;;;;2.98;100.00;99154.88;5153347;27;19923;-63
2021/12/17 03:29:12;;;;;;;5.57;1.50;;;;;;;2.95;100.00;99159.00;5153301;27;20053;-63
2021/12/17 03:31:38;;;;;;;7.90;1.65;;;;;;;2.94;100.00;99162.03;5153177;27;20447;-64
2021/12/17 03:34:18;;;;;;;5.68;1.25;;;;;;;3.02;100.00;99170.16;5153046;27;20051;-63
2021/12/17 03:36:47;;;;;;;8.13;1.33;;;;;;;2.96;100.00;99170.63;5153364;27;20051;-63
2021/12/17 03:39:14;;;;;;;4.70;1.45;;;;;;;3.05;100.00;99149.78;5152713;27;20047;-63
2021/12/17 03:41:47;;;;;;;1.35;0.90;;;;;;;3.00;100.00;99167.00;5152767;27;20425;-63
2021/12/17 03:44:14;;;;;;;5.78;1.15;;;;;;;3.00;100.00;99174.28;5150911;27;20512;-62
2021/12/17 03:46:40;;;;;;;1.13;0.88;;;;;;;2.95;100.00;99174.47;5152564;27;20427;-63
2021/12/17 03:49:06;;;;;;;4.22;1.17;;;;;;;2.83;100.00;99165.03;5152841;27;20053;-63
2021/12/17 03:51:36;;;;;;;2.03;0.90;;;;;;;2.85;100.00;99174.75;5152483;27;20050;-62
2021/12/17 03:54:02;;;;;;;1.58;0.85;;;;;;;2.87;100.00;99167.13;5152961;27;20059;-62
2021/12/17 03:56:29;;;;;;;6.78;1.30;;;;;;;2.84;100.00;99173.94;5152566;27;20053;-63
2021/12/17 03:58:57;;;;;;;2.70;1.17;;;;;;;2.80;100.00;99190.03;5152495;27;20091;-63
2021/12/17 04:01:25;;;;;;;5.22;1.00;;;;;;;2.74;100.00;99193.97;5152546;27;20046;-63
2021/12/17 04:03:52;;;;;;;3.08;1.00;;;;;;;2.81;100.00;99190.81;5152644;27;20043;-62
2021/12/17 04:06:18;;;;;;;5.00;1.00;;;;;;;2.78;100.00;99194.16;5152217;27;20053;-62
2021/12/17 04:08:44;;;;;;;6.65;1.23;;;;;;;2.81;100.00;99188.09;5152866;27;20408;-62
2021/12/17 04:11:17;;;;;;;1.63;1.20;;;;;;;2.92;100.00;99188.63;5152466;27;20046;-63
2021/12/17 04:13:44;;;;;;;6.65;1.13;;;;;;;2.92;100.00;99192.13;5152033;27;20057;-62
2021/12/17 04:16:12;;;;;;;5.47;1.00;;;;;;;2.91;100.00;99198.66;5152288;27;20494;-63
2021/12/17 04:18:40;;;;;;;4.25;1.30;;;;;;;2.89;100.00;99209.00;5152287;27;20046;-62
2021/12/17 04:21:13;;;;;;;2.65;1.15;;;;;;;2.87;100.00;99210.44;5152256;27;20103;-63
2021/12/17 04:23:40;;;;;;;2.08;1.20;;;;;;;2.87;100.00;99210.44;5151901;27;20050;-62
2021/12/17 04:26:06;;;;;;;4.78;1.35;;;;;;;2.81;100.00;99213.28;5151947;27;20430;-63
2021/12/17 04:28:35;;;;;;;3.25;1.10;;;;;;;2.87;100.00;99210.44;5151909;27;20053;-63
2021/12/17 04:31:01;;;;;;;4.32;1.20;;;;;;;2.73;100.00;99211.34;5152118;27;20055;-63
2021/12/17 04:33:28;;;;;;;4.20;1.35;;;;;;;2.72;100.00;99206.22;5151926;27;20050;-62
2021/12/17 04:35:54;;;;;;;3.25;1.13;;;;;;;2.77;100.00;99196.06;5151883;27;20051;-63
2021/12/17 04:38:22;;;;;;;6.65;1.60;;;;;;;2.65;100.00;99197.75;5152036;27;20046;-63
2021/12/17 04:40:51;;;;;;;6.60;1.50;;;;;;;2.74;100.00;99185.06;5151730;27;20105;-63
2021/12/17 04:43:29;;;;;;;3.58;1.38;;;;;;;2.77;100.00;99190.66;5151317;27;20103;-63
2021/12/17 04:46:03;;;;;;;3.83;1.45;;;;;;;2.80;100.00;99184.59;5151623;27;20047;-62
2021/12/17 04:59:27;;;;;;;7.32;1.50;;;;;;;2.80;100.00;99192.72;5151764;27;20554;-62
2021/12/17 05:01:54;;;;;;;4.90;1.50;;;;;;;2.90;100.00;99190.84;5151265;27;20102;-63
2021/12/17 05:04:21;;;;;;;3.55;1.42;;;;;;;2.87;100.00;99205.81;5151725;27;20183;-62
2021/12/17 05:06:47;;;;;;;3.15;1.10;;;;;;;2.99;100.00;99205.22;5150933;27;20082;-62
2021/12/17 05:09:24;;;;;;;4.28;1.00;;;;;;;3.16;100.00;99207.16;5151222;27;20134;-62
2021/12/17 05:20:19;;;;;;;2.08;1.30;;;;;;;3.36;100.00;99284.38;5151526;27;20436;-64
2021/12/17 05:22:49;;;;;;;5.88;1.70;;;;;;;3.37;100.00;99296.84;5150804;27;20051;-62
2021/12/17 05:25:16;;;;;;;4.78;2.15;;;;;;;3.38;100.00;99310.06;5151579;27;20515;-64
2021/12/17 05:27:42;;;;;;;5.68;1.27;;;;;;;3.39;100.00;99303.50;5151537;27;20042;-65
2021/12/17 05:30:09;;;;;;;4.40;1.45;;;;;;;3.40;100.00;99305.13;5151179;27;20520;-64
2021/12/17 05:32:35;;;;;;;6.45;2.30;;;;;;;3.30;100.00;99317.03;5150863;27;20549;-63
2021/12/17 05:35:02;;;;;;;4.55;1.00;;;;;;;3.34;100.00;99311.00;5150878;27;20047;-63
2021/12/17 05:37:29;;;;;;;5.28;1.20;;;;;;;3.39;100.00;99317.06;5151461;27;20043;-63
2021/12/17 05:39:55;;;;;;;2.47;1.10;;;;;;;3.39;100.00;99324.41;5151023;27;20043;-63
2021/12/17 05:42:22;;;;;;;4.50;1.17;;;;;;;3.52;100.00;99318.06;5150701;27;20053;-63
2021/12/17 05:44:55;;;;;;;3.75;1.10;;;;;;;3.54;100.00;99329.41;5149280;27;20053;-62
2021/12/17 05:47:21;;;;;;;2.58;0.95;;;;;;;3.49;100.00;99338.47;5148698;27;20274;-64
2021/12/17 05:49:47;;;;;;;7.90;1.35;;;;;;;3.40;100.00;99340.38;5150851;27;20042;-62
2021/12/17 05:52:14;;;;;;;6.10;1.50;;;;;;;3.40;100.00;99336.81;5151032;27;20055;-64
2021/12/17 05:54:41;;;;;;;11.57;1.88;;;;;;;3.20;100.00;99349.00;5151112;27;20644;-66
2021/12/17 05:57:07;;;;;;;4.40;1.23;;;;;;;3.08;100.00;99340.69;5154429;27;20051;-63
2021/12/17 05:59:35;;;;;;;7.57;2.00;;;;;;;2.88;100.00;99329.25;5145311;27;20051;-63
2021/12/17 06:02:04;;;;;;;6.47;2.55;;;;;;;2.91;100.00;99317.00;5133341;28;20201;-63
2021/12/17 06:04:30;;;;;;;2.50;1.30;;;;;;;2.95;100.00;99299.03;5131758;28;20504;-62
2021/12/17 06:06:56;;;;;;;4.15;1.23;;;;;;;2.97;100.00;99280.56;5133186;27;20089;-63
2021/12/17 06:09:22;;;;;;;18.08;4.63;;;;;;;3.12;100.00;99263.88;5133972;28;20047;-63
2021/12/17 06:11:49;;;;;;;7.75;2.33;;;;;;;3.12;100.00;99261.19;5133352;28;20047;-62
2021/12/17 06:14:16;;;;;;;6.53;1.80;;;;;;;3.04;100.00;99265.47;5133335;28;20047;-63
2021/12/17 06:16:42;;;;;;;6.50;2.03;;;;;;;3.18;100.00;99242.88;5133686;28;20066;-63
2021/12/17 06:19:09;;;;;;;2.67;1.23;;;;;;;3.04;100.00;99257.34;5133602;28;20054;-64
2021/12/17 06:21:35;;;;;;;4.53;1.80;;;;;;;3.09;100.00;99242.84;5122897;28;20058;-63
2021/12/17 06:24:02;;;;;;;4.82;1.10;;;;;;;3.01;100.00;99257.16;5112385;28;20559;-62
2021/12/17 06:26:28;;;;;;;3.90;1.80;;;;;;;3.03;100.00;99252.22;5112736;27;20057;-62
2021/12/17 06:28:55;;;;;;;5.35;1.60;;;;;;;3.06;100.00;99244.25;5112392;28;20050;-62
2021/12/17 06:31:23;;;;;;;2.75;1.63;;;;;;;3.20;100.00;99241.47;5126020;28;20103;-66
2021/12/17 06:33:49;;;;;;;4.85;1.90;;;;;;;3.38;100.00;99234.19;5118976;28;20104;-64
2021/12/17 06:36:16;;;;;;;2.40;1.02;;;;;;;3.34;100.00;99243.25;5112781;28;20058;-61
2021/12/17 06:38:42;;;;;;;7.30;1.35;;;;;;;3.22;100.00;99249.25;5129109;28;20048;-63
2021/12/17 06:41:08;;;;;;;3.72;1.45;;;;;;;3.19;100.00;99263.44;5112789;28;20052;-63
2021/12/17 06:43:38;;;;;;;4.00;1.33;;;;;;;3.09;100.00;99258.31;5112301;28;20051;-64
2021/12/17 06:46:18;;;;;;;5.30;1.55;;;;;;;3.02;100.00;99273.09;5112716;28;20139;-62
2021/12/17 06:48:47;;;;;;;4.97;1.50;;;;;;;3.08;100.00;99248.59;5112283;28;20043;-60
2021/12/17 06:59:50;;;;;;;3.75;1.65;;;;;;;3.15;100.00;99267.88;5068437;28;20056;-65
2021/12/17 07:10:39;;;;;;;3.58;1.55;;;;;;;3.36;100.00;99268.91;5126833;27;20046;-65
2021/12/17 07:21:29;;;;;;;2.13;1.10;;;;;;;2.91;100.00;99333.25;5131909;28;20051;-65
2021/12/17 07:32:47;;;;;;;2.58;1.30;;;;;;;3.29;100.00;99331.69;5152531;27;20054;-62
2021/12/17 07:40:44;;;;;;;3.63;0.85;;;;;;;3.09;100.00;99328.72;5132114;28;20497;-61
2021/12/17 07:43:22;;;;;;;1.30;1.00;;;;;;;2.99;100.00;99327.06;5131768;28;20249;-59
2021/12/17 07:45:49;;;;;;;4.20;1.02;;;;;;;2.80;100.00;99330.81;5132100;28;20139;-60
2021/12/17 07:48:15;;;;;;;5.63;1.45;;;;;;;2.87;100.00;99306.00;5131754;28;20055;-61
2021/12/17 07:50:42;;;;;;;1.67;1.00;;;;;;;2.90;100.00;99308.09;5131921;28;20078;-60
2021/12/17 07:53:09;;;;;;;3.40;1.08;;;;;;;2.93;100.00;99302.06;5135217;27;20386;-60
2021/12/17 07:55:36;;;;;;;4.82;1.42;;;;;;;2.78;100.00;99302.44;5152212;27;20051;-62
2021/12/17 07:58:02;;;;;;;4.85;1.35;;;;;;;2.83;100.00;99303.13;5150711;27;20058;-61
2021/12/17 08:00:29;;;;;;;2.88;1.35;;;;;;;2.92;100.00;99288.81;5131795;27;20043;-60
2021/12/17 08:02:55;;;;;;;3.97;1.30;;;;;;;2.83;100.00;99302.28;5131937;27;20051;-61
2021/12/17 08:05:21;;;;;;;2.95;1.27;;;;;;;2.86;100.00;99288.13;5132353;27;20443;-56
2021/12/17 08:07:48;;;;;;;2.75;1.10;;;;;;;2.87;100.00;99281.63;5131586;27;20047;-57
2021/12/17 08:10:15;;;;;;;2.92;1.33;;;;;;;3.06;100.00;99284.88;5131954;27;20053;-57
2021/12/17 08:12:41;;;;;;;2.63;1.30;;;;;;;3.21;100.00;99283.69;5142978;27;20083;-62
2021/12/17 08:15:10;;;;;;;4.05;1.50;;;;;;;3.28;100.00;99307.63;5152202;27;20066;-63
2021/12/17 08:17:51;;;;;;;3.65;1.55;;;;;;;3.36;100.00;99330.44;5152240;27;20082;-60
2021/12/17 08:23:59;;;;;;;5.13;1.30;;;;;;;3.34;100.00;99386.88;5142650;27;20050;-61
2021/12/17 08:26:21;;;;;;;4.65;1.40;;;;;;;3.40;100.00;99401.88;5150251;27;20043;-61
2021/12/17 08:29:06;;;;;;;3.13;1.55;;;;;;;3.35;100.00;99431.81;5151813;27;20091;-62
2021/12/17 08:31:33;;;;;;;2.70;1.48;;;;;;;3.43;100.00;99439.19;5152216;27;20389;-62
2021/12/17 08:34:02;;;;;;;3.58;1.42;;;;;;;3.38;100.00;99444.75;5149628;27;20046;-57
2021/12/17 08:36:28;;;;;;;1.48;1.20;;;;;;;3.24;100.00;99459.19;5130215;28;20059;-60
2021/12/17 08:38:55;;;;;;;4.90;1.17;;;;;;;3.30;100.00;99447.13;5131279;28;20051;-65
2021/12/17 08:41:22;;;;;;;2.88;0.85;;;;;;;3.29;100.00;99455.53;5131285;28;20107;-66
2021/12/17 08:43:48;;;;;;;4.22;1.60;;;;;;;3.13;100.00;99446.19;5130757;28;20055;-66
2021/12/17 08:46:15;;;;;;;3.20;0.90;;;;;;;2.98;100.00;99444.66;5131058;28;20057;-58
2021/12/17 08:48:42;;;;;;;0.85;0.85;;;;;;;2.91;100.00;99433.47;5130022;28;20047;-60
2021/12/17 08:51:09;;;;;;;2.90;1.13;;;;;;;2.98;100.00;99406.75;5131209;28;20103;-58
2021/12/17 08:53:35;;;;;;;3.00;1.50;;;;;;;2.98;100.00;99391.28;5130346;28;20104;-58
2021/12/17 08:56:03;;;;;;;4.50;1.40;;;;;;;3.02;100.00;99375.22;5130708;28;20050;-59
2021/12/17 08:58:30;;;;;;;1.70;0.93;;;;;;;3.08;100.00;99357.72;5130670;28;20043;-60
2021/12/17 09:00:56;;;;;;;7.47;1.40;;;;;;;3.23;100.00;99345.69;5130171;28;20043;-64
2021/12/17 09:03:23;;;;;;;4.57;1.60;;;;;;;3.08;100.00;99359.63;5130533;28;20046;-64
2021/12/17 09:05:49;;;;;;;5.15;1.63;;;;;;;3.16;100.00;99346.13;5127878;28;20145;-61
2021/12/17 09:08:16;;;;;;;6.03;1.45;;;;;;;3.19;100.00;99352.84;5125050;28;20055;-61
2021/12/17 09:10:44;;;;;;;2.30;1.40;;;;;;;3.25;100.00;99344.25;5119066;28;20052;-65
2021/12/17 09:13:12;;;;;;;2.88;1.77;;;;;;;3.28;100.00;99342.84;5110069;28;20055;-62
2021/12/17 09:15:39;;;;;;;6.10;1.75;;;;;;;3.38;100.00;99349.91;5119049;28;20478;-61
2021/12/17 09:18:05;;;;;;;3.03;1.50;;;;;;;3.37;100.00;99348.31;5140600;27;20085;-61
2021/12/17 09:20:32;;;;;;;2.80;1.77;;;;;;;3.46;100.00;99338.28;5150814;27;20051;-65
2021/12/17 09:22:59;;;;;;;3.40;1.42;;;;;;;3.29;100.00;99375.03;5150461;27;20137;-67
2021/12/17 09:25:26;;;;;;;2.47;1.42;;;;;;;3.28;100.00;99370.75;5150857;27;20051;-65
2021/12/17 09:27:53;;;;;;;3.92;1.25;;;;;;;3.33;100.00;99372.50;5150175;27;20043;-71
2021/12/17 09:30:20;;;;;;;6.97;1.98;;;;;;;3.37;100.00;99370.78;5151228;27;20097;-63
2021/12/17 09:32:46;;;;;;;3.70;1.05;;;;;;;3.38;100.00;99377.00;5154390;27;20058;-60
2021/12/17 09:35:13;;;;;;;5.38;1.30;;;;;;;3.39;100.00;99390.22;5154630;27;20412;-63
2021/12/17 09:37:40;;;;;;;7.45;1.20;;;;;;;3.45;100.00;99391.72;5154061;27;20107;-62
2021/12/17 09:40:09;;;;;;;4.78;1.70;;;;;;;3.47;100.00;99394.13;5153625;27;20123;-63
2021/12/17 09:42:37;;;;;;;2.33;1.23;;;;;;;3.62;100.00;99388.25;5154222;27;20046;-64
2021/12/17 09:45:04;;;;;;;2.90;1.40;;;;;;;3.60;100.00;99390.50;5140293;27;20511;-63
2021/12/17 09:47:31;;;;;;;1.77;1.10;;;;;;;3.61;100.00;99399.44;5133168;28;20051;-65
2021/12/17 09:49:58;;;;;;;3.80;1.90;;;;;;;3.92;100.00;99396.66;5133265;28;20589;-64
2021/12/17 09:52:25;;;;;;;2.95;1.40;;;;;;;3.97;100.00;99408.19;5133120;28;20463;-64
2021/12/17 09:54:52;;;;;;;3.25;0.90;;;;;;;3.84;100.00;99433.50;5133310;28;20518;-63
2021/12/17 09:57:20;;;;;;;5.65;1.30;;;;;;;3.85;100.00;99448.66;5129981;28;20472;-61
2021/12/17 09:59:47;;;;;;;3.47;1.00;;;;;;;3.90;100.00;99458.56;5124321;28;20050;-62
2021/12/17 10:02:14;;;;;;;8.43;1.73;;;;;;;3.91;100.00;99471.81;5132826;28;20051;-63
2021/12/17 10:04:42;;;;;;;8.73;1.90;;;;;;;4.01;100.00;99479.69;5133413;27;20070;-62
2021/12/17 10:07:20;;;;;;;2.90;1.35;;;;;;;3.93;100.00;99487.78;5131685;28;20116;-62
2021/12/17 10:09:48;;;;;;;3.50;0.85;;;;;;;3.99;100.00;99487.31;5133149;28;20057;-62
2021/12/17 10:12:14;;;;;;;2.95;1.15;;;;;;;4.00;100.00;99483.50;5132833;28;20086;-62
2021/12/17 10:14:41;;;;;;;2.15;1.15;;;;;;;4.17;100.00;99481.97;5132260;28;20050;-62
2021/12/17 10:17:09;;;;;;;2.25;0.95;;;;;;;4.13;100.00;99505.41;5132916;28;20050;-63
2021/12/17 10:19:44;;;;;;;3.08;1.50;;;;;;;4.02;100.00;99518.44;5132768;28;20051;-63
2021/12/17 10:22:12;;;;;;;4.70;1.60;;;;;;;4.01;100.00;99516.88;5132480;28;20047;-62
2021/12/17 10:24:43;;;;;;;2.13;1.00;;;;;;;3.87;100.00;99527.81;5132289;28;20058;-62
2021/12/17 10:27:20;;;;;;;4.00;1.23;;;;;;;3.90;100.00;99534.50;5133249;28;20051;-62
2021/12/17 10:29:47;;;;;;;1.77;1.00;;;;;;;3.96;100.00;99535.97;5132458;28;20138;-62
2021/12/17 10:32:17;;;;;;;3.40;1.00;;;;;;;3.96;100.00;99541.41;5132663;28;20058;-63
2021/12/17 10:35:00;;;;;;;2.70;1.30;;;;;;;4.08;100.00;99541.63;5132388;28;20061;-64
2021/12/17 10:37:39;;;;;;;2.50;1.38;;;;;;;3.90;100.00;99556.19;5132495;28;20047;-63
2021/12/17 10:40:16;;;;;;;3.22;1.10;;;;;;;3.84;100.00;99552.84;5132797;27;20696;-63
2021/12/17 10:42:50;;;;;;;1.75;0.82;;;;;;;3.97;100.00;99540.31;5131653;27;20047;-63
2021/12/17 10:45:24;;;;;;;4.03;1.58;;;;;;;3.96;100.00;99544.91;5132534;28;20047;-63
2021/12/17 10:48:13;;;;;;;3.80;1.45;;;;;;;4.12;100.00;99539.88;5132630;28;20470;-64
2021/12/17 10:50:40;;;;;;;2.20;0.95;;;;;;;4.07;100.00;99541.94;5132422;28;20050;-64
2021/12/17 10:53:08;;;;;;;1.00;0.90;;;;;;;4.12;100.00;99550.75;5132498;28;20601;-63
2021/12/17 10:55:34;;;;;;;2.05;0.95;;;;;;;4.11;100.00;99545.63;5132185;28;20452;-64
2021/12/17 10:58:02;;;;;;;1.42;1.15;;;;;;;4.29;100.00;99543.78;5132156;28;20047;-63
2021/12/17 11:00:29;;;;;;;4.53;1.20;;;;;;;4.26;100.00;99556.06;5132213;28;20079;-63
2021/12/17 11:02:56;;;;;;;0.88;0.82;;;;;;;4.21;100.00;99556.22;5132349;28;20051;-64
2021/12/17 11:05:23;;;;;;;2.78;1.20;;;;;;;4.17;100.00;99568.81;5131853;28;20096;-63
2021/12/17 11:07:52;;;;;;;2.72;1.58;;;;;;;4.24;100.00;99566.44;5131888;28;20047;-64
2021/12/17 11:10:26;;;;;;;3.88;1.20;;;;;;;4.34;100.00;99566.16;5132369;27;20351;-63
2021/12/17 11:12:52;;;;;;;;;;;;;;;4.48;100.00;99576.91;5130521;28;20196;-63
2021/12/17 11:15:22;;;;;;;1.20;1.10;;;;;;;4.59;100.00;99575.50;5118558;28;19924;-63
2021/12/17 11:17:50;;;;;;;3.08;0.90;;;;;;;4.58;100.00;99584.78;5121521;28;20560;-63
2021/12/17 11:20:19;;;;;;;1.35;0.80;;;;;;;4.49;100.00;99578.50;5111528;28;20051;-62
2021/12/17 11:22:47;;;;;;;1.63;0.90;;;;;;;4.35;100.00;99578.63;5111360;28;20051;-63
2021/12/17 11:25:17;;;;;;;3.33;1.02;;;;;;;4.50;100.00;99580.13;5117786;28;20092;-62
2021/12/17 11:27:44;;;;;;;3.50;1.10;;;;;;;4.44;100.00;99584.09;5132122;28;20091;-62
2021/12/17 11:30:12;;;;;;;1.95;0.80;;;;;;;4.18;100.00;99586.69;5131724;28;20051;-62
2021/12/17 11:32:39;;;;;;;0.85;0.85;;;;;;;4.14;100.00;99580.28;5132216;28;20053;-63
2021/12/17 11:35:07;;;;;;;3.13;0.90;;;;;;;3.96;100.00;99588.31;5128667;28;20051;-62
2021/12/17 11:37:34;;;;;;;2.63;1.00;;;;;;;3.99;100.00;99586.91;5131655;28;20139;-62
2021/12/17 11:40:05;;;;;;;1.00;0.90;;;;;;;3.97;100.00;99594.56;5131325;28;20047;-61
2021/12/17 11:43:14;;;;;;;3.30;1.17;;;;;;;4.00;100.00;99583.88;5128974;28;20055;-62
2021/12/17 11:45:42;;;;;;;7.38;1.40;;;;;;;4.14;100.00;99583.00;5101531;28;20090;-62
2021/12/17 11:48:16;;;;;;;3.90;1.00;;;;;;;4.07;100.00;99585.38;5152607;27;20137;-62
2021/12/17 11:50:43;;;;;;;3.97;1.38;;;;;;;4.08;100.00;99587.75;5152609;27;20046;-62
2021/12/17 11:53:18;;;;;;;1.50;0.98;;;;;;;3.76;100.00;99586.13;5152345;27;20059;-62
2021/12/17 11:55:46;;;;;;;1.38;0.98;;;;;;;3.78;100.00;99587.41;5151948;27;20047;-63
2021/12/17 11:58:16;;;;;;;1.95;0.85;;;;;;;3.77;100.00;99582.31;5152142;27;20047;-62
2021/12/17 12:00:50;;;;;;;2.08;0.98;;;;;;;3.83;100.00;99593.81;5152261;27;20042;-63
2021/12/17 12:03:19;;;;;;;3.22;1.10;;;;;;;3.74;100.00;99599.19;5152236;27;20188;-63
2021/12/17 12:05:47;;;;;;;2.25;1.00;;;;;;;3.78;100.00;99587.41;5151920;27;20552;-62
2021/12/17 12:08:31;;;;;;;4.18;1.30;;;;;;;3.91;100.00;99595.78;5150784;27;20416;-63
2021/12/17 12:11:10;;;;;;;4.55;1.23;;;;;;;3.89;100.00;99598.00;5151760;27;20057;-62
2021/12/17 12:13:39;;;;;;;2.92;1.10;;;;;;;4.03;100.00;99598.72;5151265;27;20134;-64
2021/12/17 12:16:08;;;;;;;2.78;1.05;;;;;;;4.00;100.00;99612.94;5149767;27;20050;-64
2021/12/17 12:18:45;;;;;;;3.65;1.02;;;;;;;4.05;100.00;99599.22;5151857;27;20068;-60
2021/12/17 12:21:15;;;;;;;6.63;1.30;;;;;;;4.13;100.00;99608.50;5151293;27;20050;-61
2021/12/17 12:23:58;;;;;;;3.53;1.13;;;;;;;4.08;100.00;99604.03;5151637;27;20162;-68
2021/12/17 12:26:37;;;;;;;1.40;1.00;;;;;;;3.69;100.00;99600.09;5148888;27;20391;-60
2021/12/17 12:29:12;;;;;;;1.55;1.05;;;;;;;3.52;100.00;99603.50;5151595;27;20070;-61
2021/12/17 12:31:48;;;;;;;4.60;1.60;;;;;;;3.39;100.00;99609.75;5151070;27;20053;-61
2021/12/17 12:34:16;;;;;;;2.78;1.15;;;;;;;3.32;100.00;99614.00;5149515;27;20051;-61
2021/12/17 12:36:51;;;;;;;3.17;1.35;;;;;;;3.30;100.00;99622.47;5151130;27;20047;-61
2021/12/17 12:39:20;;;;;;;2.65;1.10;;;;;;;3.25;100.00;99628.78;5147795;27;20057;-61
2021/12/17 12:41:48;;;;;;;2.35;1.35;;;;;;;3.30;100.00;99617.03;5149681;27;20095;-63
2021/12/17 12:44:16;;;;;;;2.97;1.10;;;;;;;3.32;100.00;99612.09;5150548;27;20050;-61
2021/12/17 12:46:50;;;;;;;1.83;1.30;;;;;;;3.35;100.00;99606.06;5151356;27;20413;-60
2021/12/17 12:49:43;;;;;;;1.77;1.17;;;;;;;3.28;100.00;99597.56;5151332;27;20464;-60
2021/12/17 12:52:24;;;;;;;2.70;1.13;;;;;;;3.13;100.00;99609.53;5151379;27;20047;-60
2021/12/17 12:54:52;;;;;;;2.25;1.40;;;;;;;3.00;100.00;99604.94;5151369;27;20050;-60
2021/12/17 12:57:26;;;;;;;5.57;2.83;;;;;;;3.03;100.00;99590.78;5151397;27;20051;-61
2021/12/17 12:59:54;;;;;;;8.60;4.35;;;;;;;2.99;100.00;99587.88;5151013;27;20072;-61
2021/12/17 13:02:21;;;;;;;5.53;1.83;;;;;;;3.01;100.00;99580.25;5151376;27;20145;-60
2021/12/17 13:04:47;;;;;;;4.28;1.75;;;;;;;3.02;100.00;99576.44;5150677;27;20099;-60
2021/12/17 13:07:14;;;;;;;3.85;1.50;;;;;;;2.95;100.00;99570.66;5150693;27;20098;-59
2021/12/17 13:09:42;;;;;;;3.25;1.35;;;;;;;2.96;100.00;99560.59;5151351;27;20103;-59
2021/12/17 13:12:10;;;;;;;3.03;1.00;;;;;;;2.87;100.00;99567.88;5151218;27;20046;-60
2021/12/17 13:14:42;;;;;;;3.38;1.02;;;;;;;2.78;100.00;99562.34;5151084;27;20093;-60
2021/12/17 13:17:39;;;;;;;3.42;1.00;;;;;;;2.74;100.00;99555.94;5150895;27;20043;-60
2021/12/17 13:20:30;;;;;;;2.58;1.20;;;;;;;2.63;100.00;99532.88;5151022;27;20046;-60
2021/12/17 13:23:09;;;;;;;4.13;1.15;;;;;;;2.62;100.00;99515.84;5150918;27;20050;-60
2021/12/17 13:25:37;;;;;;;2.05;0.90;;;;;;;2.57;100.00;99511.34;5151095;27;20141;-60
2021/12/17 13:28:04;;;;;;;2.10;1.40;;;;;;;2.51;100.00;99495.53;5150975;27;20060;-60
2021/12/17 13:30:30;;;;;;;2.92;1.05;;;;;;;2.42;100.00;99491.94;5150767;27;20047;-60
2021/12/17 13:32:57;;;;;;;1.85;1.10;;;;;;;2.26;100.00;99484.09;5150974;27;20137;-62
2021/12/17 13:35:24;;;;;;;3.90;1.00;;;;;;;2.19;100.00;99478.31;5150869;27;20054;-60
2021/12/17 13:37:52;;;;;;;2.92;1.60;;;;;;;2.24;100.00;99448.47;5150652;27;20078;-60
2021/12/17 13:40:23;;;;;;;6.55;1.17;;;;;;;2.27;100.00;99439.75;5150992;27;20051;-61
2021/12/17 13:42:49;;;;;;;3.47;1.33;;;;;;;2.22;100.00;99433.63;5150731;27;20146;-61
2021/12/17 13:45:19;;;;;;;11.02;1.58;;;;;;;2.19;100.00;99423.41;5151184;27;20065;-61
2021/12/17 13:47:46;;;;;;;2.45;1.00;;;;;;;2.23;100.00;99417.13;5150774;27;20047;-61
2021/12/17 13:50:19;;;;;;;1.00;0.90;;;;;;;2.27;100.00;99423.50;5150621;27;20047;-61
2021/12/17 13:52:48;;;;;;;2.05;0.90;;;;;;;2.25;100.00;99414.88;5150579;27;20055;-60
2021/12/17 13:55:17;;;;;;;1.85;1.05;;;;;;;2.13;100.00;99422.72;5150860;27;20052;-61